WetterOnline ( https://www.wetteronline.de )

Wetter aktuell Frauenau

Aktuelles Wetter: Zwiesel (613m)

6-stündlich | Neueste Meldungen
Ortszeit Temperatur Wetter
Mi, 21.08. 14:00 16.0° C bedeckt
Mi, 21.08. 8:00 12.3° C wolkig
Mi, 21.08. 2:00 12.2° C leichter Regen
Di, 20.08. 20:00 16.7° C Sprühregen
Di, 20.08. 14:00 20.9° C leichter Regen
Di, 20.08. 8:00 16.2° C wolkig
Di, 20.08. 2:00 15.5° C leichter Regen
Mo, 19.08. 20:00 19.0° C wolkig
Ortszeit Temperatur Wetter
Mi, 21.08. 17:30 17.6° C bedeckt
Mi, 21.08. 17:20 17.6° C bedeckt
Mi, 21.08. 17:10 17.6° C bedeckt
Mi, 21.08. 17:00 17.5° C bedeckt
Mi, 21.08. 16:50 17.5° C bedeckt
Mi, 21.08. 16:40 17.2° C bedeckt
Mi, 21.08. 16:30 16.9° C bedeckt
Mi, 21.08. 16:00 16.9° C bedeckt
Mi, 21.08. 15:30 17.0° C bedeckt
Mi, 21.08. 15:00 16.4° C bedeckt
Mi, 21.08. 14:30 16.4° C bedeckt
Ortszeit Relative Feuchte Sichtweite
Mi, 21.08. 14:00 72% 65 km
Mi, 21.08. 8:00 94% 35 km
Mi, 21.08. 2:00 92% 6 km
Di, 20.08. 20:00 93% 30 km
Di, 20.08. 14:00 69% 70 km
Di, 20.08. 8:00 94% 45 km
Di, 20.08. 2:00 97% 16 km
Mo, 19.08. 20:00 78% 70 km
Ortszeit Relative Feuchte Sichtweite
Mi, 21.08. 17:30 63% 70 km
Mi, 21.08. 17:20 63% -
Mi, 21.08. 17:10 64% -
Mi, 21.08. 17:00 67% 70 km
Mi, 21.08. 16:50 67% -
Mi, 21.08. 16:40 67% -
Mi, 21.08. 16:30 66% 70 km
Mi, 21.08. 16:00 68% 70 km
Mi, 21.08. 15:30 67% 70 km
Mi, 21.08. 15:00 70% 70 km
Mi, 21.08. 14:30 68% 70 km
Ortszeit Niederschlagsmenge Niederschlagsart
Mi, 21.08. 14:00 0.0 l/m2 in 6 Std. -
Mi, 21.08. 8:00 11 l/m2 in 12 Std. Regen
Mi, 21.08. 2:00 7 l/m2 in 6 Std. Regen
Di, 20.08. 20:00 2 l/m2 in 12 Std. Regen
Di, 20.08. 14:00 0.1 l/m2 in 6 Std. Regen
Di, 20.08. 8:00 2 l/m2 in 12 Std. Regen
Di, 20.08. 2:00 2 l/m2 in 6 Std. Regen
Mo, 19.08. 20:00 0.1 l/m2 in 12 Std. -
Ortszeit Niederschlagsmenge Niederschlagsart
Mi, 21.08. 17:30 0.0 l/m2 in 1 Std. -
Mi, 21.08. 17:20 keine Meldung -
Mi, 21.08. 17:10 keine Meldung -
Mi, 21.08. 17:00 0.0 l/m2 in 1 Std. Sprühregen
Mi, 21.08. 16:50 keine Meldung -
Mi, 21.08. 16:40 keine Meldung -
Mi, 21.08. 16:30 0.0 l/m2 in 1 Std. -
Mi, 21.08. 16:00 0.0 l/m2 in 1 Std. -
Mi, 21.08. 15:30 0.0 l/m2 in 1 Std. -
Mi, 21.08. 15:00 0.1 l/m2 in 1 Std. Sprühregen
Mi, 21.08. 14:30 0.1 l/m2 in 1 Std. Schnee
Ortszeit Stärke Spitze Richtung
km/h Bft. km/h Grad Sektor
Mi, 21.08. 14:00 4 1 14 60° NO
Mi, 21.08. 8:00 2 1 11 240° SW
Mi, 21.08. 2:00 7 2 40 340° N
Di, 20.08. 20:00 7 2 22 280° W
Di, 20.08. 14:00 11 2 18 250° W
Di, 20.08. 8:00 4 1 14 190° S
Di, 20.08. 2:00 4 1 11 260° W
Mo, 19.08. 20:00 0 0 14 - -
Ortszeit Stärke Spitze Richtung
km/h Bft. km/h Grad Sektor
Mi, 21.08. 17:30 4 1 7 140° SO
Mi, 21.08. 17:20 4 1 - 140° SO
Mi, 21.08. 17:10 4 1 - 360° N
Mi, 21.08. 17:00 4 1 11 330° NW
Mi, 21.08. 16:50 4 1 - 330° NW
Mi, 21.08. 16:40 4 1 - 320° NW
Mi, 21.08. 16:30 6 1 11 320° NW
Mi, 21.08. 16:00 6 1 13 350° N
Mi, 21.08. 15:30 6 1 11 350° N
Mi, 21.08. 15:00 7 2 11 20° N
Mi, 21.08. 14:30 2 1 6 330° NW
Ortszeit Untergrenze Bedeckung Gattung
total tief tief mittel hoch
Mi, 21.08. 14:00 630 m 8/8 8/8 - - -
Mi, 21.08. 8:00 840 m 8/8 1/8 - - -
Mi, 21.08. 2:00 990 m 8/8 8/8 - - -
Di, 20.08. 20:00 690 m 7/8 7/8 - - -
Di, 20.08. 14:00 1320 m 8/8 7/8 - - -
Di, 20.08. 8:00 2100 m 8/8 2/8 - - -
Di, 20.08. 2:00 3000 m 7/8 7/8 - - -
Mo, 19.08. 20:00 810 m 8/8 3/8 - - -
Ortszeit Bedeckungsgrad in Achtel und Wolkenuntergrenze
Mi, 21.08. 17:30 8(1800m)
Mi, 21.08. 17:20 8(1800m)
Mi, 21.08. 17:10 8(1800m)
Mi, 21.08. 17:00 8(1800m)
Mi, 21.08. 16:50 8(1800m)
Mi, 21.08. 16:40 8(1800m)
Mi, 21.08. 16:30 1(1380m) 8(1800m)
Mi, 21.08. 16:00 7(1350m) 8(1800m)
Mi, 21.08. 15:30 4(1350m) 7(1500m) 8(1800m)
Mi, 21.08. 15:00 7(1320m) 8(1500m)
Mi, 21.08. 14:30 6(1110m) 7(1350m) 8(1500m)
Ortszeit Luftdruck NN (hPa) Tendenz (hPa in 3 Std.)
Mi, 21.08. 14:00 1028 - 0,3
Mi, 21.08. 8:00 1029 + 1,1
Mi, 21.08. 2:00 1027 + 2,2
Di, 20.08. 20:00 1020 + 0,5
Di, 20.08. 14:00 1019 - 0,4
Di, 20.08. 8:00 1021 + 0,1
Di, 20.08. 2:00 1020 - 0,3
Mo, 19.08. 20:00 1018 + 0,2
Ortszeit Luftdruck NN (hPa) Tendenz (hPa in 3 Std.)
Mi, 21.08. 17:30 1027 - 0,3
Mi, 21.08. 17:20 1027 keine Meldung
Mi, 21.08. 17:10 1027 keine Meldung
Mi, 21.08. 17:00 1027 - 0,4
Mi, 21.08. 16:50 1027 keine Meldung
Mi, 21.08. 16:40 1027 keine Meldung
Mi, 21.08. 16:30 1027 - 0,4
Mi, 21.08. 16:00 1027 - 0,4
Mi, 21.08. 15:30 1027 - 0,4
Mi, 21.08. 15:00 1028 - 0,5
Mi, 21.08. 14:30 1028 - 0,3
Ortszeit Schneehöhe (cm)
Mi, 21.08. 14:00 -
Mi, 21.08. 8:00 -
Mi, 21.08. 2:00 -
Di, 20.08. 20:00 -
Di, 20.08. 14:00 -
Di, 20.08. 8:00 -
Di, 20.08. 2:00 -
Mo, 19.08. 20:00 -
Ortszeit Schneehöhe (cm)
Mi, 21.08. 17:30 -
Mi, 21.08. 17:20 -
Mi, 21.08. 17:10 -
Mi, 21.08. 17:00 -
Mi, 21.08. 16:50 -
Mi, 21.08. 16:40 -
Mi, 21.08. 16:30 -
Mi, 21.08. 16:00 -
Mi, 21.08. 15:30 -
Mi, 21.08. 15:00 -
Mi, 21.08. 14:30 -
Link zu dieser Seite / Seite empfehlen

Das Wetter in ...